sensor_id;sensor_type;location;lat;lon;timestamp;pressure;altitude;pressure_sealevel;temperature;humidity
54512;BME280;40419;47.438;19.026;2022-08-25T00:01:57;99894.16;;;19.80;100.00
54512;BME280;40419;47.438;19.026;2022-08-25T00:04:23;99896.34;;;19.78;100.00
54512;BME280;40419;47.438;19.026;2022-08-25T00:06:52;99894.88;;;19.71;100.00
54512;BME280;40419;47.438;19.026;2022-08-25T00:09:21;99887.47;;;19.71;100.00
54512;BME280;40419;47.438;19.026;2022-08-25T00:11:48;99895.44;;;19.73;100.00
54512;BME280;40419;47.438;19.026;2022-08-25T00:14:21;99893.34;;;19.80;100.00
54512;BME280;40419;47.438;19.026;2022-08-25T00:16:48;99895.16;;;19.69;100.00
54512;BME280;40419;47.438;19.026;2022-08-25T00:19:20;99893.06;;;19.49;100.00
54512;BME280;40419;47.438;19.026;2022-08-25T00:21:49;99886.84;;;19.64;100.00
54512;BME280;40419;47.438;19.026;2022-08-25T00:24:18;99886.91;;;19.69;100.00
54512;BME280;40419;47.438;19.026;2022-08-25T00:26:50;99887.47;;;19.71;100.00
54512;BME280;40419;47.438;19.026;2022-08-25T00:29:19;99889.41;;;19.71;100.00
54512;BME280;40419;47.438;19.026;2022-08-25T00:31:47;99890.84;;;19.78;100.00
54512;BME280;40419;47.438;19.026;2022-08-25T00:34:17;99892.31;;;19.59;100.00
54512;BME280;40419;47.438;19.026;2022-08-25T00:36:44;99886.81;;;19.59;100.00
54512;BME280;40419;47.438;19.026;2022-08-25T00:39:10;99886.91;;;19.69;100.00
54512;BME280;40419;47.438;19.026;2022-08-25T00:41:38;99882.16;;;19.59;100.00
54512;BME280;40419;47.438;19.026;2022-08-25T00:44:11;99891.25;;;19.60;100.00
54512;BME280;40419;47.438;19.026;2022-08-25T00:46:49;99881.03;;;19.55;100.00
54512;BME280;40419;47.438;19.026;2022-08-25T00:49:23;99889.84;;;19.57;100.00
54512;BME280;40419;47.438;19.026;2022-08-25T00:54:32;99878.31;;;19.60;100.00
54512;BME280;40419;47.438;19.026;2022-08-25T00:57:00;99877.00;;;19.68;100.00
54512;BME280;40419;47.438;19.026;2022-08-25T00:59:33;99882.75;;;19.66;100.00
54512;BME280;40419;47.438;19.026;2022-08-25T01:02:01;99885.56;;;19.72;100.00
54512;BME280;40419;47.438;19.026;2022-08-25T01:04:30;99881.31;;;19.54;100.00
54512;BME280;40419;47.438;19.026;2022-08-25T01:06:56;99882.16;;;19.59;100.00
54512;BME280;40419;47.438;19.026;2022-08-25T01:09:23;99882.66;;;19.51;100.00
54512;BME280;40419;47.438;19.026;2022-08-25T01:11:49;99882.66;;;19.51;100.00
54512;BME280;40419;47.438;19.026;2022-08-25T01:14:19;99877.06;;;19.41;100.00
54512;BME280;40419;47.438;19.026;2022-08-25T01:16:51;99881.16;;;19.38;100.00
54512;BME280;40419;47.438;19.026;2022-08-25T01:19:17;99881.66;;;19.35;100.00
54512;BME280;40419;47.438;19.026;2022-08-25T01:21:48;99885.00;;;19.37;100.00
54512;BME280;40419;47.438;19.026;2022-08-25T01:24:32;99877.56;;;19.05;100.00
54512;BME280;40419;47.438;19.026;2022-08-25T01:27:02;99878.75;;;19.15;100.00
54512;BME280;40419;47.438;19.026;2022-08-25T01:29:28;99879.72;;;19.30;100.00
54512;BME280;40419;47.438;19.026;2022-08-25T01:32:00;99874.47;;;19.29;100.00
54512;BME280;40419;47.438;19.026;2022-08-25T01:34:28;99875.63;;;19.33;100.00
54512;BME280;40419;47.438;19.026;2022-08-25T01:36:56;99874.97;;;19.21;100.00
54512;BME280;40419;47.438;19.026;2022-08-25T01:39:28;99871.69;;;19.24;100.00
54512;BME280;40419;47.438;19.026;2022-08-25T01:44:30;99869.78;;;19.24;100.00
54512;BME280;40419;47.438;19.026;2022-08-25T01:46:59;99876.66;;;19.27;100.00
54512;BME280;40419;47.438;19.026;2022-08-25T01:49:25;99869.88;;;19.35;100.00
54512;BME280;40419;47.438;19.026;2022-08-25T01:52:00;99869.97;;;19.45;100.00
54512;BME280;40419;47.438;19.026;2022-08-25T01:54:29;99871.59;;;19.46;100.00
54512;BME280;40419;47.438;19.026;2022-08-25T01:56:57;99871.44;;;19.58;100.00
54512;BME280;40419;47.438;19.026;2022-08-25T01:59:26;99872.38;;;19.41;100.00
54512;BME280;40419;47.438;19.026;2022-08-25T02:01:54;99872.34;;;19.36;100.00
54512;BME280;40419;47.438;19.026;2022-08-25T02:04:20;99874.94;;;19.48;100.00
54512;BME280;40419;47.438;19.026;2022-08-25T02:06:48;99861.63;;;19.35;100.00
54512;BME280;40419;47.438;19.026;2022-08-25T02:09:16;99867.88;;;19.25;100.00
54512;BME280;40419;47.438;19.026;2022-08-25T02:11:45;99877.72;;;19.21;100.00
54512;BME280;40419;47.438;19.026;2022-08-25T02:14:14;99864.81;;;19.21;100.00
54512;BME280;40419;47.438;19.026;2022-08-25T02:16:41;99869.38;;;19.10;100.00
54512;BME280;40419;47.438;19.026;2022-08-25T02:19:10;99870.28;;;19.21;100.00
54512;BME280;40419;47.438;19.026;2022-08-25T02:21:36;99864.66;;;19.33;100.00
54512;BME280;40419;47.438;19.026;2022-08-25T02:24:04;99860.47;;;19.25;100.00
54512;BME280;40419;47.438;19.026;2022-08-25T02:26:30;99860.13;;;19.22;100.00
54512;BME280;40419;47.438;19.026;2022-08-25T02:28:56;99862.53;;;19.13;100.00
54512;BME280;40419;47.438;19.026;2022-08-25T02:31:23;99865.63;;;18.94;100.00
54512;BME280;40419;47.438;19.026;2022-08-25T02:33:54;99868.69;;;18.76;100.00
54512;BME280;40419;47.438;19.026;2022-08-25T02:36:20;99866.41;;;18.68;100.00
54512;BME280;40419;47.438;19.026;2022-08-25T02:38:53;99855.06;;;18.81;100.00
54512;BME280;40419;47.438;19.026;2022-08-25T02:41:23;99857.13;;;18.96;100.00
54512;BME280;40419;47.438;19.026;2022-08-25T02:43:52;99861.00;;;18.95;100.00
54512;BME280;40419;47.438;19.026;2022-08-25T02:46:19;99847.28;;;18.95;100.00
54512;BME280;40419;47.438;19.026;2022-08-25T02:48:47;99855.50;;;18.95;100.00
54512;BME280;40419;47.438;19.026;2022-08-25T02:51:13;99856.03;;;18.92;100.00
54512;BME280;40419;47.438;19.026;2022-08-25T02:53:42;99854.41;;;18.96;100.00
54512;BME280;40419;47.438;19.026;2022-08-25T02:56:13;99861.56;;;18.97;100.00
54512;BME280;40419;47.438;19.026;2022-08-25T02:58:46;99857.72;;;18.98;100.00
54512;BME280;40419;47.438;19.026;2022-08-25T03:01:12;99857.22;;;19.01;100.00
54512;BME280;40419;47.438;19.026;2022-08-25T03:03:42;99859.88;;;18.96;100.00
54512;BME280;40419;47.438;19.026;2022-08-25T03:06:13;99853.56;;;18.95;100.00
54512;BME280;40419;47.438;19.026;2022-08-25T03:08:44;99848.09;;;18.95;100.00
54512;BME280;40419;47.438;19.026;2022-08-25T03:11:15;99857.13;;;18.96;100.00
54512;BME280;40419;47.438;19.026;2022-08-25T03:13:41;99851.25;;;19.09;100.00
54512;BME280;40419;47.438;19.026;2022-08-25T03:16:08;99847.38;;;19.05;100.00
54512;BME280;40419;47.438;19.026;2022-08-25T03:18:35;99851.19;;;19.04;100.00
54512;BME280;40419;47.438;19.026;2022-08-25T03:21:03;99841.53;;;18.97;100.00
54512;BME280;40419;47.438;19.026;2022-08-25T03:23:34;99844.81;;;18.99;100.00
54512;BME280;40419;47.438;19.026;2022-08-25T03:26:02;99845.59;;;18.94;100.00
54512;BME280;40419;47.438;19.026;2022-08-25T03:28:48;99845.59;;;18.94;100.00
54512;BME280;40419;47.438;19.026;2022-08-25T03:31:14;99855.19;;;18.91;100.00
54512;BME280;40419;47.438;19.026;2022-08-25T03:33:40;99847.47;;;18.88;100.00
54512;BME280;40419;47.438;19.026;2022-08-25T03:36:10;99860.66;;;18.91;100.00
54512;BME280;40419;47.438;19.026;2022-08-25T03:38:38;99855.94;;;18.87;100.00
54512;BME280;40419;47.438;19.026;2022-08-25T03:41:15;99853.22;;;18.87;100.00
54512;BME280;40419;47.438;19.026;2022-08-25T03:43:44;99845.81;;;18.87;100.00
54512;BME280;40419;47.438;19.026;2022-08-25T03:46:17;99854.09;;;18.70;100.00
54512;BME280;40419;47.438;19.026;2022-08-25T03:48:43;99850.28;;;18.49;100.00
54512;BME280;40419;47.438;19.026;2022-08-25T03:51:11;99845.69;;;18.55;100.00
54512;BME280;40419;47.438;19.026;2022-08-25T03:53:38;99849.44;;;18.71;100.00
54512;BME280;40419;47.438;19.026;2022-08-25T03:56:03;99854.94;;;18.71;100.00
54512;BME280;40419;47.438;19.026;2022-08-25T03:58:32;99843.81;;;18.83;100.00
54512;BME280;40419;47.438;19.026;2022-08-25T04:00:57;99853.22;;;18.87;100.00
54512;BME280;40419;47.438;19.026;2022-08-25T04:03:25;99856.38;;;19.01;100.00
54512;BME280;40419;47.438;19.026;2022-08-25T04:05:59;99861.91;;;19.06;100.00
54512;BME280;40419;47.438;19.026;2022-08-25T04:08:25;99853.88;;;19.26;100.00
54512;BME280;40419;47.438;19.026;2022-08-25T04:10:53;99855.97;;;19.46;100.00
54512;BME280;40419;47.438;19.026;2022-08-25T04:13:28;99857.16;;;19.56;100.00
54512;BME280;40419;47.438;19.026;2022-08-25T04:15:56;99861.31;;;19.63;100.00
54512;BME280;40419;47.438;19.026;2022-08-25T04:18:24;99865.50;;;19.71;100.00
54512;BME280;40419;47.438;19.026;2022-08-25T04:20:50;99863.88;;;19.75;100.00
54512;BME280;40419;47.438;19.026;2022-08-25T04:23:15;99875.81;;;19.86;100.00
54512;BME280;40419;47.438;19.026;2022-08-25T04:25:43;99859.19;;;20.08;100.00
54512;BME280;40419;47.438;19.026;2022-08-25T04:28:13;99858.06;;;20.09;100.00
54512;BME280;40419;47.438;19.026;2022-08-25T04:30:43;99856.22;;;20.20;100.00
54512;BME280;40419;47.438;19.026;2022-08-25T04:33:09;99859.53;;;20.27;100.00
54512;BME280;40419;47.438;19.026;2022-08-25T04:35:38;99859.00;;;20.25;100.00
54512;BME280;40419;47.438;19.026;2022-08-25T04:38:10;99860.94;;;20.30;100.00
54512;BME280;40419;47.438;19.026;2022-08-25T04:40:40;99857.06;;;20.26;100.00
54512;BME280;40419;47.438;19.026;2022-08-25T04:43:08;99859.88;;;20.36;100.00
54512;BME280;40419;47.438;19.026;2022-08-25T04:45:38;99857.44;;;20.40;100.00
54512;BME280;40419;47.438;19.026;2022-08-25T04:48:04;99856.31;;;20.41;100.00
54512;BME280;40419;47.438;19.026;2022-08-25T04:50:39;99847.75;;;20.32;100.00
54512;BME280;40419;47.438;19.026;2022-08-25T04:53:05;99859.34;;;20.39;100.00
54512;BME280;40419;47.438;19.026;2022-08-25T04:55:39;99857.94;;;20.36;100.00
54512;BME280;40419;47.438;19.026;2022-08-25T04:58:07;99854.09;;;20.38;100.00
54512;BME280;40419;47.438;19.026;2022-08-25T05:00:35;99850.81;;;20.41;100.00
54512;BME280;40419;47.438;19.026;2022-08-25T05:03:04;99858.97;;;20.20;100.00
54512;BME280;40419;47.438;19.026;2022-08-25T05:05:35;99849.13;;;20.34;100.00
54512;BME280;40419;47.438;19.026;2022-08-25T05:08:01;99853.34;;;20.52;100.00
54512;BME280;40419;47.438;19.026;2022-08-25T05:10:26;99857.44;;;20.40;100.00
54512;BME280;40419;47.438;19.026;2022-08-25T05:12:52;99858.56;;;20.49;100.00
54512;BME280;40419;47.438;19.026;2022-08-25T05:15:20;99859.97;;;20.57;100.00
54512;BME280;40419;47.438;19.026;2022-08-25T05:18:05;99846.84;;;20.69;100.00
54512;BME280;40419;47.438;19.026;2022-08-25T05:20:35;99847.13;;;20.78;100.00
54512;BME280;40419;47.438;19.026;2022-08-25T05:23:04;99852.63;;;20.83;100.00
54512;BME280;40419;47.438;19.026;2022-08-25T05:25:32;99854.34;;;20.94;100.00
54512;BME280;40419;47.438;19.026;2022-08-25T05:28:00;99852.41;;;20.95;100.00
54512;BME280;40419;47.438;19.026;2022-08-25T05:30:29;99857.09;;;21.04;100.00
54512;BME280;40419;47.438;19.026;2022-08-25T05:32:59;99857.66;;;21.12;100.00
54512;BME280;40419;47.438;19.026;2022-08-25T05:35:27;99859.59;;;21.11;100.00
54512;BME280;40419;47.438;19.026;2022-08-25T05:37:57;99854.66;;;21.18;100.00
54512;BME280;40419;47.438;19.026;2022-08-25T05:40:23;99859.88;;;21.30;100.00
54512;BME280;40419;47.438;19.026;2022-08-25T05:42:49;99851.63;;;21.40;100.00
54512;BME280;40419;47.438;19.026;2022-08-25T05:45:24;99852.16;;;21.37;100.00
54512;BME280;40419;47.438;19.026;2022-08-25T05:47:52;99845.84;;;21.37;100.00
54512;BME280;40419;47.438;19.026;2022-08-25T05:50:18;99843.91;;;21.48;100.00
54512;BME280;40419;47.438;19.026;2022-08-25T05:52:44;99845.88;;;21.57;100.00
54512;BME280;40419;47.438;19.026;2022-08-25T05:55:15;99849.72;;;21.41;100.00
54512;BME280;40419;47.438;19.026;2022-08-25T05:57:43;99854.69;;;21.54;100.00
54512;BME280;40419;47.438;19.026;2022-08-25T06:00:09;99849.16;;;21.44;100.00
54512;BME280;40419;47.438;19.026;2022-08-25T06:02:39;99847.22;;;21.50;100.00
54512;BME280;40419;47.438;19.026;2022-08-25T06:05:21;99849.44;;;21.68;100.00
54512;BME280;40419;47.438;19.026;2022-08-25T06:07:50;99849.44;;;21.73;100.00
54512;BME280;40419;47.438;19.026;2022-08-25T06:10:17;99853.00;;;21.79;100.00
54512;BME280;40419;47.438;19.026;2022-08-25T06:12:49;99851.31;;;21.93;100.00
54512;BME280;40419;47.438;19.026;2022-08-25T06:15:17;99849.94;;;22.01;100.00
54512;BME280;40419;47.438;19.026;2022-08-25T06:17:47;99857.34;;;22.11;100.00
54512;BME280;40419;47.438;19.026;2022-08-25T06:20:16;99852.94;;;22.15;100.00
54512;BME280;40419;47.438;19.026;2022-08-25T06:22:45;99859.81;;;22.23;100.00
54512;BME280;40419;47.438;19.026;2022-08-25T06:25:16;99856.22;;;22.27;100.00
54512;BME280;40419;47.438;19.026;2022-08-25T06:27:45;99859.47;;;22.50;100.00
54512;BME280;40419;47.438;19.026;2022-08-25T06:30:13;99863.63;;;22.37;100.00
54512;BME280;40419;47.438;19.026;2022-08-25T06:32:43;99863.34;;;22.44;100.00
54512;BME280;40419;47.438;19.026;2022-08-25T06:35:15;99867.72;;;22.55;100.00
54512;BME280;40419;47.438;19.026;2022-08-25T06:37:41;99868.16;;;22.78;97.34
54512;BME280;40419;47.438;19.026;2022-08-25T06:40:10;99874.19;;;22.85;99.19
54512;BME280;40419;47.438;19.026;2022-08-25T06:42:45;99874.75;;;22.82;98.13
54512;BME280;40419;47.438;19.026;2022-08-25T06:45:15;99871.84;;;23.13;96.82
54512;BME280;40419;47.438;19.026;2022-08-25T06:47:46;99871.63;;;22.99;93.39
54512;BME280;40419;47.438;19.026;2022-08-25T06:52:40;99873.38;;;23.34;94.48
54512;BME280;40419;47.438;19.026;2022-08-25T06:55:05;99876.19;;;23.24;91.99
54512;BME280;40419;47.438;19.026;2022-08-25T06:57:34;99881.06;;;23.38;89.11
54512;BME280;40419;47.438;19.026;2022-08-25T07:00:05;99880.22;;;23.42;91.33
54512;BME280;40419;47.438;19.026;2022-08-25T07:02:41;99885.06;;;23.56;88.03
54512;BME280;40419;47.438;19.026;2022-08-25T07:05:07;99887.75;;;23.66;89.02
54512;BME280;40419;47.438;19.026;2022-08-25T07:07:32;99885.16;;;23.45;88.11
54512;BME280;40419;47.438;19.026;2022-08-25T07:10:00;99885.00;;;23.26;89.99
54512;BME280;40419;47.438;19.026;2022-08-25T07:12:31;99879.56;;;23.56;88.33
54512;BME280;40419;47.438;19.026;2022-08-25T07:14:59;99888.38;;;23.58;86.60
54512;BME280;40419;47.438;19.026;2022-08-25T07:17:26;99884.22;;;23.60;87.19
54512;BME280;40419;47.438;19.026;2022-08-25T07:19:52;99884.38;;;23.74;89.40
54512;BME280;40419;47.438;19.026;2022-08-25T07:22:18;99881.25;;;23.81;87.99
54512;BME280;40419;47.438;19.026;2022-08-25T07:24:43;99881.75;;;23.93;86.30
54512;BME280;40419;47.438;19.026;2022-08-25T07:27:09;99874.50;;;23.97;86.49
54512;BME280;40419;47.438;19.026;2022-08-25T07:29:34;99875.22;;;24.08;85.87
54512;BME280;40419;47.438;19.026;2022-08-25T07:32:05;99878.38;;;23.96;84.75
54512;BME280;40419;47.438;19.026;2022-08-25T07:34:31;99883.53;;;24.08;84.18
54512;BME280;40419;47.438;19.026;2022-08-25T07:37:19;99886.94;;;24.24;80.65
54512;BME280;40419;47.438;19.026;2022-08-25T07:39:47;99874.41;;;24.32;81.77
54512;BME280;40419;47.438;19.026;2022-08-25T07:42:15;99881.28;;;24.34;83.60
54512;BME280;40419;47.438;19.026;2022-08-25T07:44:41;99873.88;;;24.54;81.91
54512;BME280;40419;47.438;19.026;2022-08-25T07:47:06;99873.53;;;24.61;78.88
54512;BME280;40419;47.438;19.026;2022-08-25T07:49:34;99868.84;;;24.56;78.97
54512;BME280;40419;47.438;19.026;2022-08-25T07:52:03;99874.28;;;24.66;80.47
54512;BME280;40419;47.438;19.026;2022-08-25T07:54:29;99878.03;;;24.75;78.21
54512;BME280;40419;47.438;19.026;2022-08-25T07:56:58;99871.84;;;24.84;81.25
54512;BME280;40419;47.438;19.026;2022-08-25T07:59:23;99867.22;;;24.79;80.85
54512;BME280;40419;47.438;19.026;2022-08-25T08:01:51;99870.88;;;24.74;83.42
54512;BME280;40419;47.438;19.026;2022-08-25T08:04:16;99876.66;;;24.97;80.62
54512;BME280;40419;47.438;19.026;2022-08-25T08:06:42;99862.94;;;24.87;75.36
54512;BME280;40419;47.438;19.026;2022-08-25T08:09:10;99863.94;;;24.96;75.57
54512;BME280;40419;47.438;19.026;2022-08-25T08:11:36;99877.81;;;24.91;79.33
54512;BME280;40419;47.438;19.026;2022-08-25T08:14:06;99866.69;;;24.96;78.22
54512;BME280;40419;47.438;19.026;2022-08-25T08:16:32;99879.13;;;24.99;72.66
54512;BME280;40419;47.438;19.026;2022-08-25T08:19:03;99876.50;;;25.26;71.62
54512;BME280;40419;47.438;19.026;2022-08-25T08:21:34;99868.19;;;25.07;73.70
54512;BME280;40419;47.438;19.026;2022-08-25T08:24:02;99872.22;;;25.15;74.05
54512;BME280;40419;47.438;19.026;2022-08-25T08:26:30;99876.44;;;25.12;71.17
54512;BME280;40419;47.438;19.026;2022-08-25T08:28:57;99873.22;;;25.24;71.06
54512;BME280;40419;47.438;19.026;2022-08-25T08:31:26;99878.13;;;25.46;69.53
54512;BME280;40419;47.438;19.026;2022-08-25T08:33:56;99876.25;;;25.61;69.36
54512;BME280;40419;47.438;19.026;2022-08-25T08:36:26;99870.13;;;25.78;69.64
54512;BME280;40419;47.438;19.026;2022-08-25T08:38:54;99871.59;;;25.89;68.39
54512;BME280;40419;47.438;19.026;2022-08-25T08:41:40;99875.78;;;25.73;68.46
54512;BME280;40419;47.438;19.026;2022-08-25T08:50:09;99862.56;;;25.97;66.84
54512;BME280;40419;47.438;19.026;2022-08-25T08:52:48;99867.47;;;25.73;68.04
54512;BME280;40419;47.438;19.026;2022-08-25T08:57:49;99859.91;;;25.92;67.94
54512;BME280;40419;47.438;19.026;2022-08-25T09:00:16;99859.97;;;25.87;68.48
54512;BME280;40419;47.438;19.026;2022-08-25T09:02:52;99867.53;;;26.00;68.87
54512;BME280;40419;47.438;19.026;2022-08-25T09:05:26;99866.00;;;26.08;65.91
54512;BME280;40419;47.438;19.026;2022-08-25T09:07:56;99860.16;;;26.10;65.82
54512;BME280;40419;47.438;19.026;2022-08-25T09:10:28;99857.38;;;26.24;64.79
54512;BME280;40419;47.438;19.026;2022-08-25T09:16:04;99849.97;;;26.19;66.61
54512;BME280;40419;47.438;19.026;2022-08-25T09:33:05;99833.50;;;26.64;61.01
54512;BME280;40419;47.438;19.026;2022-08-25T09:35:35;99837.13;;;26.65;63.24
54512;BME280;40419;47.438;19.026;2022-08-25T09:38:06;99830.13;;;26.67;63.02
54512;BME280;40419;47.438;19.026;2022-08-25T09:40:40;99824.75;;;26.57;61.14
54512;BME280;40419;47.438;19.026;2022-08-25T09:43:29;99820.66;;;26.55;62.28
54512;BME280;40419;47.438;19.026;2022-08-25T09:51:34;99809.97;;;26.76;62.94
54512;BME280;40419;47.438;19.026;2022-08-25T09:54:15;99811.44;;;26.96;63.71
54512;BME280;40419;47.438;19.026;2022-08-25T09:57:01;99807.09;;;27.03;60.31
54512;BME280;40419;47.438;19.026;2022-08-25T09:59:34;99805.44;;;27.02;60.12
54512;BME280;40419;47.438;19.026;2022-08-25T10:04:50;99793.28;;;27.12;61.43
54512;BME280;40419;47.438;19.026;2022-08-25T10:07:33;99797.63;;;27.27;61.44
54512;BME280;40419;47.438;19.026;2022-08-25T10:10:14;99794.16;;;27.21;60.92
54512;BME280;40419;47.438;19.026;2022-08-25T10:12:44;99798.22;;;27.38;60.88
54512;BME280;40419;47.438;19.026;2022-08-25T10:15:27;99797.94;;;27.26;62.25
54512;BME280;40419;47.438;19.026;2022-08-25T10:17:58;99795.03;;;27.08;60.02
54512;BME280;40419;47.438;19.026;2022-08-25T10:20:40;99795.16;;;27.03;58.83
54512;BME280;40419;47.438;19.026;2022-08-25T10:23:12;99788.88;;;27.34;57.30
54512;BME280;40419;47.438;19.026;2022-08-25T10:25:45;99792.25;;;27.31;56.55
54512;BME280;40419;47.438;19.026;2022-08-25T10:28:24;99787.47;;;27.45;58.92
54512;BME280;40419;47.438;19.026;2022-08-25T10:31:13;99785.75;;;27.35;57.39
54512;BME280;40419;47.438;19.026;2022-08-25T10:36:39;99782.63;;;27.59;56.34
54512;BME280;40419;47.438;19.026;2022-08-25T10:39:16;99774.38;;;27.46;58.83
54512;BME280;40419;47.438;19.026;2022-08-25T10:56:12;99763.84;;;27.65;55.76
54512;BME280;40419;47.438;19.026;2022-08-25T11:07:18;99738.34;;;27.72;57.17
54512;BME280;40419;47.438;19.026;2022-08-25T11:09:47;99747.66;;;27.58;55.74
54512;BME280;40419;47.438;19.026;2022-08-25T11:12:35;99746.97;;;27.53;57.31
54512;BME280;40419;47.438;19.026;2022-08-25T11:15:09;99731.78;;;27.59;58.21
54512;BME280;40419;47.438;19.026;2022-08-25T11:17:45;99734.66;;;27.85;57.50
54512;BME280;40419;47.438;19.026;2022-08-25T11:20:18;99735.81;;;27.84;54.35
54512;BME280;40419;47.438;19.026;2022-08-25T11:25:30;99735.22;;;27.96;54.93
54512;BME280;40419;47.438;19.026;2022-08-25T11:28:07;99732.72;;;27.94;54.34
54512;BME280;40419;47.438;19.026;2022-08-25T11:30:38;99723.31;;;28.13;55.23
54512;BME280;40419;47.438;19.026;2022-08-25T11:33:11;99718.69;;;28.00;55.16
54512;BME280;40419;47.438;19.026;2022-08-25T11:35:50;99717.50;;;27.92;53.28
54512;BME280;40419;47.438;19.026;2022-08-25T11:57:47;99683.19;;;28.05;55.30
54512;BME280;40419;47.438;19.026;2022-08-25T12:00:34;99683.34;;;28.00;55.35
54512;BME280;40419;47.438;19.026;2022-08-25T12:21:55;99679.41;;;28.01;53.10
54512;BME280;40419;47.438;19.026;2022-08-25T12:27:36;99679.09;;;28.03;54.23
54512;BME280;40419;47.438;19.026;2022-08-25T12:30:25;99672.53;;;27.99;53.57
54512;BME280;40419;47.438;19.026;2022-08-25T12:33:42;99663.06;;;28.00;52.96
54512;BME280;40419;47.438;19.026;2022-08-25T12:36:01;99665.50;;;28.01;53.63
54512;BME280;40419;47.438;19.026;2022-08-25T12:38:48;99666.78;;;27.95;54.23
54512;BME280;40419;47.438;19.026;2022-08-25T12:41:25;99664.06;;;28.04;54.07
54512;BME280;40419;47.438;19.026;2022-08-25T12:43:53;99666.84;;;28.04;51.96
54512;BME280;40419;47.438;19.026;2022-08-25T12:46:35;99655.38;;;28.14;53.62
54512;BME280;40419;47.438;19.026;2022-08-25T12:49:33;99663.75;;;28.84;49.41
54512;BME280;40419;47.438;19.026;2022-08-25T12:52:05;99656.38;;;28.71;50.23
54512;BME280;40419;47.438;19.026;2022-08-25T12:59:55;99661.94;;;28.53;50.78
54512;BME280;40419;47.438;19.026;2022-08-25T13:10:24;99646.38;;;28.35;52.60
54512;BME280;40419;47.438;19.026;2022-08-25T13:13:09;99644.91;;;28.20;53.71
54512;BME280;40419;47.438;19.026;2022-08-25T13:18:21;99649.66;;;28.19;52.44
54512;BME280;40419;47.438;19.026;2022-08-25T13:23:48;99639.53;;;28.23;52.32
54512;BME280;40419;47.438;19.026;2022-08-25T13:26:20;99632.47;;;28.26;53.60
54512;BME280;40419;47.438;19.026;2022-08-25T13:28:56;99634.44;;;28.34;52.01
54512;BME280;40419;47.438;19.026;2022-08-25T13:31:22;99631.81;;;28.29;54.97
54512;BME280;40419;47.438;19.026;2022-08-25T13:33:57;99633.94;;;28.32;53.36
54512;BME280;40419;47.438;19.026;2022-08-25T13:36:27;99629.53;;;28.31;54.75
54512;BME280;40419;47.438;19.026;2022-08-25T13:39:18;99630.00;;;28.24;54.44
54512;BME280;40419;47.438;19.026;2022-08-25T13:41:52;99623.13;;;28.31;53.19
54512;BME280;40419;47.438;19.026;2022-08-25T13:44:26;99626.56;;;28.45;53.60
54512;BME280;40419;47.438;19.026;2022-08-25T13:47:31;99627.53;;;28.58;51.42
54512;BME280;40419;47.438;19.026;2022-08-25T13:50:19;99626.47;;;29.06;49.35
54512;BME280;40419;47.438;19.026;2022-08-25T13:52:52;99627.03;;;28.82;51.20
54512;BME280;40419;47.438;19.026;2022-08-25T13:55:28;99627.72;;;28.44;52.42
54512;BME280;40419;47.438;19.026;2022-08-25T13:57:58;99623.63;;;28.41;52.54
54512;BME280;40419;47.438;19.026;2022-08-25T14:00:30;99624.28;;;28.21;54.50
54512;BME280;40419;47.438;19.026;2022-08-25T14:02:56;99617.41;;;28.18;53.52
54512;BME280;40419;47.438;19.026;2022-08-25T14:05:32;99618.38;;;28.22;52.32
54512;BME280;40419;47.438;19.026;2022-08-25T14:08:00;99622.97;;;28.36;53.20
54512;BME280;40419;47.438;19.026;2022-08-25T14:10:42;99613.44;;;28.80;51.29
54512;BME280;40419;47.438;19.026;2022-08-25T14:13:27;99614.59;;;28.71;52.37
54512;BME280;40419;47.438;19.026;2022-08-25T14:16:26;99612.97;;;28.35;52.13
54512;BME280;40419;47.438;19.026;2022-08-25T14:18:56;99612.66;;;28.27;54.01
54512;BME280;40419;47.438;19.026;2022-08-25T14:21:26;99605.94;;;28.11;54.73
54512;BME280;40419;47.438;19.026;2022-08-25T14:23:55;99603.50;;;28.01;55.41
54512;BME280;40419;47.438;19.026;2022-08-25T14:26:28;99607.84;;;27.93;55.13
54512;BME280;40419;47.438;19.026;2022-08-25T14:28:54;99601.03;;;28.08;55.08
54512;BME280;40419;47.438;19.026;2022-08-25T14:31:31;99605.28;;;28.32;54.46
54512;BME280;40419;47.438;19.026;2022-08-25T14:34:00;99602.66;;;28.35;53.05
54512;BME280;40419;47.438;19.026;2022-08-25T14:36:32;99601.50;;;28.27;52.23
54512;BME280;40419;47.438;19.026;2022-08-25T14:39:05;99599.06;;;28.08;52.85
54512;BME280;40419;47.438;19.026;2022-08-25T14:41:36;99592.34;;;28.09;53.40
54512;BME280;40419;47.438;19.026;2022-08-25T14:44:03;99598.88;;;27.87;56.54
54512;BME280;40419;47.438;19.026;2022-08-25T14:46:34;99593.09;;;27.84;55.31
54512;BME280;40419;47.438;19.026;2022-08-25T14:49:05;99589.69;;;27.96;55.30
54512;BME280;40419;47.438;19.026;2022-08-25T14:51:37;99596.94;;;28.23;52.69
54512;BME280;40419;47.438;19.026;2022-08-25T14:54:06;99585.50;;;28.07;54.14
54512;BME280;40419;47.438;19.026;2022-08-25T14:56:34;99594.91;;;27.88;55.10
54512;BME280;40419;47.438;19.026;2022-08-25T14:59:00;99591.22;;;28.19;52.93
54512;BME280;40419;47.438;19.026;2022-08-25T15:01:28;99585.94;;;28.35;52.83
54512;BME280;40419;47.438;19.026;2022-08-25T15:04:08;99590.06;;;28.03;54.63
54512;BME280;40419;47.438;19.026;2022-08-25T15:06:38;99582.00;;;27.92;54.39
54512;BME280;40419;47.438;19.026;2022-08-25T15:09:13;99583.28;;;27.77;55.43
54512;BME280;40419;47.438;19.026;2022-08-25T15:11:52;99590.47;;;27.70;55.54
54512;BME280;40419;47.438;19.026;2022-08-25T15:14:20;99590.28;;;27.57;56.15
54512;BME280;40419;47.438;19.026;2022-08-25T15:16:55;99590.13;;;27.54;57.14